Time;durP1;ratioP1;P1;durP2;ratioP2;P2;SDS_P1;SDS_P2;PMS_P1;PMS_P2;Temp;Humidity;BMP_temperature;BMP_pressure;BME280_temperature;BME280_humidity;BME280_pressure;Samples;Min_cycle;Max_cycle;Signal;HPM_P1;HPM_P2
2023/09/07 00:01:08;;;;;;;10.15;9.18;;;;;;;21.25;63.82;101810.09;5069453;28;20376;-64
2023/09/07 00:03:33;;;;;;;10.82;9.45;;;;;;;21.31;63.79;101803.22;5073855;28;20016;-64
2023/09/07 00:05:58;;;;;;;13.43;10.07;;;;;;;21.26;64.07;101813.75;5073910;28;20078;-64
2023/09/07 00:08:25;;;;;;;13.05;10.23;;;;;;;21.32;63.81;101804.94;5073013;28;20410;-64
2023/09/07 00:10:50;;;;;;;13.02;9.80;;;;;;;21.25;64.12;101800.78;5073961;28;20038;-64
2023/09/07 00:13:16;;;;;;;12.45;9.98;;;;;;;21.17;64.23;101801.44;5073764;28;20033;-64
2023/09/07 00:15:42;;;;;;;11.05;9.70;;;;;;;21.19;64.07;101802.84;5072912;28;20517;-64
2023/09/07 00:18:08;;;;;;;11.82;10.63;;;;;;;21.20;64.33;101800.84;5069430;28;20037;-64
2023/09/07 00:20:33;;;;;;;11.90;9.90;;;;;;;21.21;64.00;101808.16;5073653;28;20039;-64
2023/09/07 00:23:00;;;;;;;12.90;10.63;;;;;;;21.18;64.18;101805.94;5072818;28;20036;-64
2023/09/07 00:25:25;;;;;;;11.48;10.38;;;;;;;21.12;64.18;101802.34;5073400;28;20504;-64
2023/09/07 00:27:51;;;;;;;12.43;11.10;;;;;;;21.07;64.39;101796.78;5072733;28;20049;-65
2023/09/07 00:30:16;;;;;;;14.93;11.43;;;;;;;21.04;64.48;101792.56;5073403;28;20115;-65
2023/09/07 00:32:41;;;;;;;11.52;10.32;;;;;;;21.05;64.46;101794.25;5073321;28;20536;-64
2023/09/07 00:35:09;;;;;;;12.73;10.57;;;;;;;21.04;64.38;101786.09;5063004;28;20025;-64
2023/09/07 00:37:34;;;;;;;12.52;11.25;;;;;;;21.01;64.55;101783.84;5073130;28;20036;-64
2023/09/07 00:39:59;;;;;;;14.32;10.88;;;;;;;20.94;64.92;101780.56;5073397;28;20094;-64
2023/09/07 00:42:25;;;;;;;13.55;10.85;;;;;;;20.96;64.63;101775.47;5072391;28;20024;-64
2023/09/07 00:44:50;;;;;;;12.55;10.75;;;;;;;20.92;65.07;101780.03;5073343;28;20024;-64
2023/09/07 00:47:16;;;;;;;13.00;11.32;;;;;;;20.92;64.80;101785.69;5073076;28;20027;-64
2023/09/07 00:49:41;;;;;;;12.95;11.10;;;;;;;20.93;64.88;101782.53;5066477;28;20025;-64
2023/09/07 00:52:08;;;;;;;13.70;11.30;;;;;;;20.89;64.94;101795.56;5069399;28;20060;-65
2023/09/07 00:54:34;;;;;;;12.13;10.93;;;;;;;20.88;64.92;101790.25;5072790;28;20040;-64
2023/09/07 00:56:59;;;;;;;15.20;11.60;;;;;;;20.80;65.14;101795.41;5072381;28;20036;-64
2023/09/07 00:59:25;;;;;;;14.00;12.50;;;;;;;20.74;65.39;101796.56;5072996;28;20129;-64
2023/09/07 01:01:50;;;;;;;13.43;12.02;;;;;;;20.84;65.45;101795.63;5072877;28;20040;-64
2023/09/07 01:04:16;;;;;;;15.40;12.50;;;;;;;20.78;65.81;101794.00;5071358;28;20059;-64
2023/09/07 01:06:49;;;;;;;14.68;12.70;;;;;;;20.75;65.73;101792.63;5061953;28;20021;-64
2023/09/07 01:09:24;;;;;;;13.13;11.73;;;;;;;20.68;65.63;101794.13;5052816;28;20062;-64
2023/09/07 01:11:50;;;;;;;16.38;12.45;;;;;;;20.63;65.65;101794.16;5051953;28;20459;-64
2023/09/07 01:14:15;;;;;;;13.20;11.68;;;;;;;20.67;65.70;101790.47;5052702;28;20043;-64
2023/09/07 01:16:40;;;;;;;14.57;11.90;;;;;;;20.65;65.61;101775.81;5052524;28;20389;-64
2023/09/07 01:19:06;;;;;;;13.95;12.25;;;;;;;20.55;65.95;101792.84;5051521;28;20041;-64
2023/09/07 01:21:35;;;;;;;13.73;12.32;;;;;;;20.54;66.05;101785.50;5052342;28;20036;-64
2023/09/07 01:24:03;;;;;;;15.85;12.55;;;;;;;20.46;66.03;101778.50;5053443;28;20392;-64
2023/09/07 01:26:28;;;;;;;15.27;12.45;;;;;;;20.57;65.72;101779.28;5052660;28;20032;-64
2023/09/07 01:28:53;;;;;;;13.45;12.05;;;;;;;20.54;65.44;101775.06;5052275;28;20408;-64
2023/09/07 01:31:19;;;;;;;13.90;11.85;;;;;;;20.55;65.43;101784.38;5051416;28;20116;-64
2023/09/07 01:33:44;;;;;;;13.48;11.60;;;;;;;20.53;65.34;101776.22;5052146;28;20020;-64
2023/09/07 01:36:09;;;;;;;12.52;11.32;;;;;;;20.50;65.29;101784.44;5052009;28;20464;-64
2023/09/07 01:38:35;;;;;;;13.25;11.35;;;;;;;20.50;65.37;101773.16;5051305;28;20033;-64
2023/09/07 01:41:00;;;;;;;12.23;11.02;;;;;;;20.46;65.50;101772.88;5052136;28;20033;-65
2023/09/07 01:43:26;;;;;;;12.80;11.50;;;;;;;20.40;65.62;101767.59;5065341;28;20032;-64
2023/09/07 01:45:51;;;;;;;14.75;11.32;;;;;;;20.39;65.54;101774.34;5071232;28;20025;-64
2023/09/07 01:48:16;;;;;;;12.32;11.10;;;;;;;20.34;65.75;101764.81;5071799;28;20024;-64
2023/09/07 01:50:42;;;;;;;15.57;11.60;;;;;;;20.32;65.57;101772.75;5071698;28;20145;-64
2023/09/07 01:53:07;;;;;;;13.27;11.43;;;;;;;20.34;65.62;101767.63;5068076;28;20099;-64
2023/09/07 01:55:33;;;;;;;15.55;12.50;;;;;;;20.33;66.08;101776.41;5071077;28;20031;-64
2023/09/07 01:57:58;;;;;;;12.95;11.68;;;;;;;20.31;66.05;101765.41;5071995;28;20490;-64
2023/09/07 02:00:24;;;;;;;14.70;12.15;;;;;;;20.30;65.84;101769.34;5071205;28;20486;-64
2023/09/07 02:02:49;;;;;;;13.27;11.68;;;;;;;20.30;65.71;101774.16;5071655;28;20110;-64
2023/09/07 02:05:14;;;;;;;12.85;11.55;;;;;;;20.27;65.44;101769.94;5071686;28;20033;-63
2023/09/07 02:07:40;;;;;;;13.85;11.98;;;;;;;20.25;65.74;101772.25;5071139;28;20025;-64
2023/09/07 02:10:06;;;;;;;12.85;11.20;;;;;;;20.25;65.52;101766.59;5067330;28;20454;-64
2023/09/07 02:12:31;;;;;;;13.20;11.88;;;;;;;20.24;65.78;101769.69;5071562;28;20108;-64
2023/09/07 02:15:04;;;;;;;12.70;11.40;;;;;;;20.20;65.73;101774.25;5070135;28;20026;-64
2023/09/07 02:17:30;;;;;;;13.55;12.13;;;;;;;20.14;66.04;101769.81;5071375;28;20028;-63
2023/09/07 02:19:55;;;;;;;13.70;12.40;;;;;;;20.18;65.80;101771.72;5071254;28;20055;-64
2023/09/07 02:22:20;;;;;;;14.07;11.85;;;;;;;20.10;65.34;101770.38;5070970;28;20096;-64
2023/09/07 02:24:46;;;;;;;14.00;12.48;;;;;;;20.14;65.32;101769.81;5069820;28;20025;-63
2023/09/07 02:27:11;;;;;;;15.68;12.30;;;;;;;20.07;65.64;101772.97;5051408;28;20021;-64
2023/09/07 02:29:36;;;;;;;15.82;12.23;;;;;;;20.06;65.74;101763.66;5050949;28;20033;-64
2023/09/07 02:32:02;;;;;;;20.88;12.00;;;;;;;20.01;65.41;101766.53;5051270;28;20031;-63
2023/09/07 02:34:27;;;;;;;14.60;12.15;;;;;;;20.04;65.50;101770.72;5050373;28;20078;-65
2023/09/07 02:36:53;;;;;;;15.30;12.13;;;;;;;20.01;65.32;101774.16;5051220;28;20519;-64
2023/09/07 02:39:18;;;;;;;15.52;12.85;;;;;;;19.94;65.81;101768.00;5051359;28;20025;-64
2023/09/07 02:41:43;;;;;;;16.50;12.80;;;;;;;19.95;65.82;101772.50;5050305;28;20477;-64
2023/09/07 02:44:09;;;;;;;18.60;12.55;;;;;;;19.92;65.74;101764.63;5057309;28;20038;-65
2023/09/07 02:46:34;;;;;;;16.30;13.10;;;;;;;19.89;66.18;101765.25;5071052;28;20037;-64
2023/09/07 02:48:59;;;;;;;15.43;13.48;;;;;;;19.88;66.21;101767.19;5070079;28;20056;-65
2023/09/07 02:51:25;;;;;;;19.33;13.70;;;;;;;19.84;66.52;101766.94;5070885;28;20064;-64
2023/09/07 02:53:51;;;;;;;15.73;12.65;;;;;;;19.82;66.30;101762.75;5070875;28;20039;-64
2023/09/07 02:56:17;;;;;;;16.23;13.73;;;;;;;19.78;66.64;101761.66;5070058;28;20078;-64
2023/09/07 02:58:43;;;;;;;16.80;12.68;;;;;;;19.79;66.55;101755.72;5070746;28;20036;-64
2023/09/07 03:01:11;;;;;;;16.00;13.10;;;;;;;19.80;66.38;101762.19;5058901;28;20035;-64
2023/09/07 03:03:36;;;;;;;15.30;12.95;;;;;;;19.77;66.64;101755.19;5049974;28;20104;-64
2023/09/07 03:06:12;;;;;;;14.90;12.48;;;;;;;19.84;66.46;101755.66;5051081;28;20117;-64
2023/09/07 03:08:38;;;;;;;13.98;12.57;;;;;;;19.77;66.42;101755.19;5050873;28;20435;-64
2023/09/07 03:11:05;;;;;;;15.63;12.65;;;;;;;19.69;66.42;101753.00;5050032;28;20049;-65
2023/09/07 03:13:30;;;;;;;15.82;13.07;;;;;;;19.74;66.40;101760.56;5050589;28;20461;-64
2023/09/07 03:15:56;;;;;;;15.65;12.70;;;;;;;19.71;66.08;101769.59;5050659;28;20047;-64
2023/09/07 03:18:21;;;;;;;15.15;13.55;;;;;;;19.69;66.08;101769.88;5057707;28;20425;-64
2023/09/07 03:20:47;;;;;;;17.75;12.60;;;;;;;19.73;66.18;101767.28;5070827;28;20029;-65
2023/09/07 03:23:12;;;;;;;18.27;13.30;;;;;;;19.67;66.32;101760.88;5070775;28;20051;-65
2023/09/07 03:25:37;;;;;;;17.23;13.70;;;;;;;19.66;66.39;101761.19;5069999;28;20023;-65
2023/09/07 03:28:03;;;;;;;14.98;13.15;;;;;;;19.58;66.55;101759.78;5073902;28;20464;-65
2023/09/07 03:30:29;;;;;;;17.23;13.02;;;;;;;19.57;66.62;101752.44;5074004;28;20373;-65
2023/09/07 03:32:54;;;;;;;17.90;13.15;;;;;;;19.55;66.42;101754.72;5073921;28;20028;-66
2023/09/07 03:35:20;;;;;;;19.17;13.25;;;;;;;19.60;65.89;101763.97;5071628;28;20036;-65
2023/09/07 03:37:45;;;;;;;14.00;12.50;;;;;;;19.58;65.95;101768.22;5072403;28;20500;-65
2023/09/07 03:40:11;;;;;;;14.27;12.77;;;;;;;19.53;66.00;101771.06;5073994;28;20051;-65
2023/09/07 03:42:36;;;;;;;17.25;12.77;;;;;;;19.48;66.07;101771.94;5074093;28;20063;-65
2023/09/07 03:45:03;;;;;;;14.68;12.55;;;;;;;19.47;66.17;101783.50;5073238;28;20028;-65
2023/09/07 03:47:29;;;;;;;17.00;13.10;;;;;;;19.48;66.19;101779.56;5073815;28;20403;-65
2023/09/07 03:49:56;;;;;;;17.02;13.13;;;;;;;19.43;66.29;101771.97;5073657;28;20024;-65
2023/09/07 03:52:24;;;;;;;14.10;12.57;;;;;;;19.38;66.47;101770.03;5073207;28;20035;-66
2023/09/07 03:54:49;;;;;;;14.43;12.98;;;;;;;19.35;66.45;101770.63;5070057;28;20038;-65
2023/09/07 03:57:15;;;;;;;14.35;12.70;;;;;;;19.34;66.26;101773.72;5073616;28;20111;-65
2023/09/07 03:59:40;;;;;;;14.65;13.18;;;;;;;19.35;66.30;101776.25;5073021;28;20029;-65
2023/09/07 04:02:06;;;;;;;14.15;12.75;;;;;;;19.33;65.97;101772.88;5074091;28;20052;-65
2023/09/07 04:04:31;;;;;;;16.30;13.27;;;;;;;19.34;66.04;101773.72;5073576;28;20040;-65
2023/09/07 04:06:56;;;;;;;15.38;13.88;;;;;;;19.23;66.47;101781.38;5072868;28;20025;-65
2023/09/07 04:09:21;;;;;;;14.13;12.60;;;;;;;19.25;66.61;101769.81;5069792;28;20032;-65
2023/09/07 04:11:47;;;;;;;16.08;13.05;;;;;;;19.23;66.78;101770.13;5073609;28;20032;-65
2023/09/07 04:14:12;;;;;;;14.48;12.40;;;;;;;19.27;66.33;101770.38;5072680;28;20032;-65
2023/09/07 04:16:37;;;;;;;17.25;13.35;;;;;;;19.26;66.24;101769.53;5073539;28;20024;-65
2023/09/07 04:19:03;;;;;;;14.65;13.18;;;;;;;19.23;66.21;101766.47;5073275;28;20087;-65
2023/09/07 04:21:28;;;;;;;16.67;12.98;;;;;;;19.21;66.17;101768.72;5072733;28;20071;-65
2023/09/07 04:23:54;;;;;;;16.35;12.63;;;;;;;19.20;66.38;101767.03;5073172;28;20063;-65
2023/09/07 04:26:19;;;;;;;19.83;12.73;;;;;;;19.16;66.18;101772.41;5064642;28;20162;-63
2023/09/07 04:28:44;;;;;;;16.35;13.05;;;;;;;19.20;65.96;101776.31;5070809;28;20132;-63
2023/09/07 04:31:10;;;;;;;13.57;12.18;;;;;;;19.16;66.20;101774.38;5073131;28;20072;-63
2023/09/07 04:33:35;;;;;;;13.88;12.40;;;;;;;19.13;66.28;101775.78;5073542;28;20027;-63
2023/09/07 04:36:09;;;;;;;16.52;13.98;;;;;;;19.09;66.46;101780.31;5071639;28;20112;-64
2023/09/07 04:38:34;;;;;;;14.07;12.68;;;;;;;19.07;66.72;101779.78;5068224;28;20020;-64
2023/09/07 04:41:10;;;;;;;20.05;13.25;;;;;;;19.06;66.52;101778.06;5072269;28;20071;-64
2023/09/07 04:43:36;;;;;;;14.90;12.93;;;;;;;19.05;66.42;101784.81;5072839;28;20032;-64
2023/09/07 04:46:02;;;;;;;18.33;14.00;;;;;;;18.99;66.90;101777.56;5072986;28;20032;-64
2023/09/07 04:48:28;;;;;;;15.32;12.68;;;;;;;19.02;66.82;101768.50;5072039;28;20529;-64
2023/09/07 04:51:05;;;;;;;17.55;12.73;;;;;;;19.02;66.48;101774.13;5073007;28;20060;-64
2023/09/07 04:53:34;;;;;;;14.40;12.90;;;;;;;19.02;66.67;101772.19;5069221;28;20047;-64
2023/09/07 04:56:00;;;;;;;16.92;13.18;;;;;;;19.00;66.47;101774.44;5052049;28;20104;-64
2023/09/07 04:58:26;;;;;;;14.30;12.73;;;;;;;18.97;66.60;101772.19;5052659;28;20116;-64
2023/09/07 05:00:51;;;;;;;17.17;13.35;;;;;;;18.96;66.65;101766.88;5051466;28;20029;-64
2023/09/07 05:03:17;;;;;;;15.30;12.90;;;;;;;18.96;66.47;101773.34;5064371;28;20032;-64
2023/09/07 05:05:44;;;;;;;16.23;13.05;;;;;;;18.96;66.57;101778.13;5072491;28;20032;-64
2023/09/07 05:08:09;;;;;;;16.58;12.65;;;;;;;18.88;66.59;101785.19;5072472;28;20111;-64
2023/09/07 05:10:36;;;;;;;19.73;12.63;;;;;;;18.81;66.79;101785.47;5071583;28;20124;-64
2023/09/07 05:13:01;;;;;;;16.10;13.32;;;;;;;18.80;67.03;101789.44;5072658;28;20103;-64
2023/09/07 05:15:27;;;;;;;13.32;12.02;;;;;;;18.76;67.05;101790.28;5072514;28;20044;-64
2023/09/07 05:17:53;;;;;;;14.40;12.55;;;;;;;18.72;67.15;101790.00;5071519;28;20036;-63
2023/09/07 05:20:18;;;;;;;15.30;12.68;;;;;;;18.73;67.25;101794.50;5071533;28;20025;-64
2023/09/07 05:22:44;;;;;;;15.00;12.55;;;;;;;18.71;67.38;101791.16;5072273;28;20028;-64
2023/09/07 05:25:10;;;;;;;16.20;12.95;;;;;;;18.69;67.80;101793.34;5071304;28;20434;-64
2023/09/07 05:27:35;;;;;;;13.77;12.48;;;;;;;18.64;67.24;101794.22;5071990;28;20531;-64
2023/09/07 05:30:02;;;;;;;17.67;12.63;;;;;;;18.66;67.33;101793.91;5071916;28;20150;-64
2023/09/07 05:32:27;;;;;;;13.80;12.25;;;;;;;18.65;67.72;101795.06;5071214;28;20495;-64
2023/09/07 05:34:52;;;;;;;14.40;11.93;;;;;;;18.64;67.76;101793.38;5068642;28;20040;-64
2023/09/07 05:37:17;;;;;;;14.18;12.48;;;;;;;18.68;67.48;101796.47;5070057;28;20380;-64
2023/09/07 05:39:43;;;;;;;13.38;11.98;;;;;;;18.64;67.51;101805.47;5071516;28;20099;-64
2023/09/07 05:42:08;;;;;;;14.70;12.15;;;;;;;18.67;67.77;101798.44;5072061;28;20206;-64
2023/09/07 05:44:34;;;;;;;21.05;12.77;;;;;;;18.66;67.83;101799.53;5071129;28;20134;-64
2023/09/07 05:46:59;;;;;;;14.55;12.43;;;;;;;18.71;67.84;101799.59;5071550;28;20079;-64
2023/09/07 05:49:24;;;;;;;17.13;12.88;;;;;;;18.76;67.86;101808.00;5071483;28;20025;-64
2023/09/07 05:51:50;;;;;;;13.95;12.55;;;;;;;18.79;67.95;101801.81;5070926;28;20077;-64
2023/09/07 05:54:21;;;;;;;16.25;13.32;;;;;;;18.75;68.79;101806.31;5067407;28;20472;-64
2023/09/07 05:56:46;;;;;;;14.68;13.07;;;;;;;18.79;68.58;101807.44;5071577;28;20479;-64
2023/09/07 05:59:12;;;;;;;15.30;13.43;;;;;;;18.84;68.46;101810.22;5070785;28;20029;-64
2023/09/07 06:01:38;;;;;;;16.00;13.30;;;;;;;18.88;68.74;101811.34;5071306;28;20132;-64
2023/09/07 06:04:04;;;;;;;18.70;13.45;;;;;;;18.93;68.56;101813.28;5071368;28;20064;-64
2023/09/07 06:06:29;;;;;;;17.63;13.32;;;;;;;18.99;68.45;101816.94;5071159;28;20105;-65
2023/09/07 06:08:55;;;;;;;16.23;12.95;;;;;;;19.05;68.52;101821.41;5072291;28;20108;-66
2023/09/07 06:11:20;;;;;;;14.30;12.95;;;;;;;19.08;68.62;101818.03;5067756;28;20460;-65
2023/09/07 06:13:46;;;;;;;17.02;12.68;;;;;;;19.19;68.28;101818.84;5070814;28;20460;-65
2023/09/07 06:16:12;;;;;;;14.60;13.10;;;;;;;19.22;68.51;101826.72;5071389;28;20431;-66
2023/09/07 06:18:37;;;;;;;15.52;13.05;;;;;;;19.28;68.45;101819.91;5071349;28;20076;-66
2023/09/07 06:21:04;;;;;;;13.68;12.30;;;;;;;19.34;68.57;101819.63;5071186;28;20025;-66
2023/09/07 06:23:29;;;;;;;15.35;12.65;;;;;;;19.41;68.42;101824.91;5071483;28;20396;-65
2023/09/07 06:25:55;;;;;;;17.40;12.95;;;;;;;19.48;68.36;101833.88;5067690;28;20038;-65
2023/09/07 06:28:20;;;;;;;15.50;13.40;;;;;;;19.50;68.51;101827.97;5059907;28;20388;-65
2023/09/07 06:30:46;;;;;;;14.57;12.98;;;;;;;19.55;68.29;101828.78;5081235;28;20067;-65
2023/09/07 06:33:11;;;;;;;14.23;12.75;;;;;;;19.62;68.27;101834.13;5075444;28;20530;-65
2023/09/07 06:35:36;;;;;;;15.75;12.25;;;;;;;19.70;68.06;101827.91;5070603;28;20023;-65
2023/09/07 06:38:02;;;;;;;13.82;12.32;;;;;;;19.77;67.88;101836.88;5067946;28;20464;-65
2023/09/07 06:40:27;;;;;;;14.63;13.23;;;;;;;19.84;67.76;101836.53;5069838;28;20496;-65
2023/09/07 06:42:53;;;;;;;15.95;13.60;;;;;;;19.86;68.38;101834.28;5071376;28;20016;-65
2023/09/07 06:45:18;;;;;;;20.08;13.07;;;;;;;19.92;68.29;101841.53;5071154;28;20020;-66
2023/09/07 06:47:44;;;;;;;14.80;13.27;;;;;;;19.95;68.20;101828.84;5070387;28;20698;-66
2023/09/07 06:50:10;;;;;;;18.00;14.05;;;;;;;20.00;68.09;101837.25;5070833;28;20478;-65
2023/09/07 06:52:35;;;;;;;13.73;12.32;;;;;;;20.10;67.86;101837.19;5070963;28;20024;-65
2023/09/07 06:55:01;;;;;;;16.42;13.50;;;;;;;20.12;67.65;101840.53;5061738;28;20028;-65
2023/09/07 06:57:26;;;;;;;14.38;12.07;;;;;;;20.18;67.36;101842.19;5051221;28;20029;-65
2023/09/07 06:59:52;;;;;;;15.73;12.60;;;;;;;20.23;67.66;101846.94;5051662;28;20427;-65
2023/09/07 07:02:17;;;;;;;19.15;12.98;;;;;;;20.28;67.92;101844.13;5068174;28;20131;-65
2023/09/07 07:04:43;;;;;;;14.88;11.82;;;;;;;20.34;67.91;101843.75;5075258;28;20419;-65
2023/09/07 07:07:09;;;;;;;13.43;12.00;;;;;;;20.40;67.11;101847.41;5074962;28;20024;-65
2023/09/07 07:09:34;;;;;;;12.63;11.27;;;;;;;20.44;66.89;101842.00;5074270;28;20479;-65
2023/09/07 07:12:03;;;;;;;13.50;12.10;;;;;;;20.51;66.95;101849.00;5075081;28;20035;-64
2023/09/07 07:14:28;;;;;;;13.85;10.68;;;;;;;20.59;67.08;101847.50;5075132;28;20459;-63
2023/09/07 07:16:53;;;;;;;14.98;11.23;;;;;;;20.66;66.74;101844.34;5074200;28;20064;-64
2023/09/07 07:19:19;;;;;;;13.57;10.60;;;;;;;20.71;65.67;101850.81;5061025;28;20131;-63
2023/09/07 07:21:44;;;;;;;13.93;10.65;;;;;;;20.80;65.68;101846.19;5054794;28;20115;-64
2023/09/07 07:24:10;;;;;;;12.10;9.48;;;;;;;20.89;65.92;101845.53;5054289;28;20025;-64
2023/09/07 07:26:35;;;;;;;10.77;9.68;;;;;;;20.93;64.72;101849.44;5054859;28;20020;-63
2023/09/07 07:29:02;;;;;;;14.88;10.15;;;;;;;21.00;65.73;101841.47;5054806;28;20029;-62
2023/09/07 07:31:29;;;;;;;13.13;9.85;;;;;;;21.08;64.18;101835.16;5054003;28;20033;-63
2023/09/07 07:33:55;;;;;;;12.32;8.50;;;;;;;21.18;63.90;101837.88;5054736;28;20240;-63
2023/09/07 07:36:20;;;;;;;14.68;9.07;;;;;;;21.25;63.31;101845.94;5059060;28;20029;-63
2023/09/07 07:38:46;;;;;;;10.60;7.90;;;;;;;21.42;63.75;101842.66;5073992;28;20420;-63
2023/09/07 07:41:11;;;;;;;11.15;8.63;;;;;;;21.52;62.75;101840.53;5074724;28;20435;-63
2023/09/07 07:43:36;;;;;;;9.88;8.00;;;;;;;21.66;63.15;101839.81;5074512;28;20495;-64
2023/09/07 07:46:02;;;;;;;9.02;7.70;;;;;;;21.72;62.51;101845.06;5073808;28;20024;-64
2023/09/07 07:48:29;;;;;;;10.40;7.63;;;;;;;21.84;61.92;101846.59;5070765;28;20055;-64
2023/09/07 07:50:55;;;;;;;10.90;7.53;;;;;;;21.95;61.50;101853.78;5067343;28;20041;-64
2023/09/07 07:53:20;;;;;;;10.07;7.75;;;;;;;22.05;60.79;101842.34;5073276;28;20032;-65
2023/09/07 07:55:46;;;;;;;10.57;7.57;;;;;;;22.13;59.95;101841.66;5074159;28;20131;-64
2023/09/07 07:58:11;;;;;;;9.32;7.05;;;;;;;22.17;60.21;101837.09;5073407;28;20050;-64
2023/09/07 08:00:38;;;;;;;10.77;6.40;;;;;;;22.34;59.82;101841.31;5074332;28;20059;-65
2023/09/07 08:03:05;;;;;;;10.35;7.00;;;;;;;22.42;59.41;101834.97;5074026;28;20503;-64
2023/09/07 08:05:32;;;;;;;11.15;6.55;;;;;;;22.51;58.12;101838.75;5073446;28;20028;-64
2023/09/07 08:07:57;;;;;;;11.02;6.28;;;;;;;22.57;58.13;101831.03;5070818;28;20029;-64
2023/09/07 08:10:23;;;;;;;7.68;5.95;;;;;;;22.71;58.70;101827.06;5073183;28;20036;-64
2023/09/07 08:12:53;;;;;;;7.30;6.57;;;;;;;22.73;58.30;101836.09;5073311;28;20165;-64
2023/09/07 08:15:21;;;;;;;10.27;6.13;;;;;;;22.84;57.81;101825.41;5074037;28;20039;-64
2023/09/07 08:17:47;;;;;;;8.60;6.20;;;;;;;22.97;57.80;101826.59;5074022;28;20375;-64
2023/09/07 08:20:12;;;;;;;9.43;6.32;;;;;;;23.07;58.62;101819.88;5073028;28;20048;-64
2023/09/07 08:22:40;;;;;;;8.77;6.32;;;;;;;23.16;56.61;101815.19;5074248;28;20073;-64
2023/09/07 08:25:07;;;;;;;8.90;6.07;;;;;;;23.24;56.63;101812.44;5073812;28;20353;-64
2023/09/07 08:27:33;;;;;;;9.02;5.65;;;;;;;23.30;55.94;101804.66;5062546;28;20168;-64
2023/09/07 08:29:59;;;;;;;8.70;6.00;;;;;;;23.45;56.10;101810.00;5070076;28;20468;-64
2023/09/07 08:32:24;;;;;;;9.88;5.85;;;;;;;23.52;55.45;101799.06;5090221;28;20024;-64
2023/09/07 08:34:50;;;;;;;8.52;6.28;;;;;;;23.52;55.48;101801.06;5064496;28;20488;-64
2023/09/07 08:37:16;;;;;;;8.52;5.55;;;;;;;23.64;55.08;101795.69;5073646;28;20132;-64
2023/09/07 08:39:41;;;;;;;12.00;5.88;;;;;;;23.70;54.55;101802.13;5073788;28;20518;-64
2023/09/07 08:42:07;;;;;;;5.55;5.00;;;;;;;23.76;54.51;101801.66;5072799;28;20029;-64
2023/09/07 08:44:33;;;;;;;8.75;5.43;;;;;;;23.82;54.32;101805.25;5073406;28;20025;-64
2023/09/07 08:47:01;;;;;;;6.85;5.63;;;;;;;23.85;53.90;101792.41;5073398;28;20032;-64
2023/09/07 08:49:26;;;;;;;6.75;5.03;;;;;;;23.97;54.92;101801.16;5070452;28;20025;-64
2023/09/07 08:51:53;;;;;;;7.10;5.22;;;;;;;24.12;54.56;101800.78;5064479;28;20477;-64
2023/09/07 08:54:19;;;;;;;6.97;4.90;;;;;;;24.16;54.61;101799.00;5052782;28;20029;-64
2023/09/07 08:56:46;;;;;;;9.98;4.68;;;;;;;24.27;54.61;101795.91;5053133;28;20463;-64
2023/09/07 08:59:12;;;;;;;7.00;5.60;;;;;;;24.30;53.50;101796.09;5053109;28;20017;-64
2023/09/07 09:01:37;;;;;;;5.80;4.75;;;;;;;24.34;52.46;101790.63;5052299;28;20036;-64
2023/09/07 09:04:03;;;;;;;6.30;4.72;;;;;;;24.39;52.48;101784.81;5058430;28;20539;-64
2023/09/07 09:06:29;;;;;;;7.85;4.63;;;;;;;24.54;52.82;101790.09;5073198;28;20025;-64
2023/09/07 09:08:56;;;;;;;6.47;4.60;;;;;;;24.61;52.44;101793.31;5072275;28;20024;-64
2023/09/07 09:11:22;;;;;;;6.90;4.45;;;;;;;24.71;52.32;101790.19;5072662;28;20499;-64
2023/09/07 09:13:49;;;;;;;7.63;4.38;;;;;;;24.79;52.70;101787.72;5072646;28;20032;-64
2023/09/07 09:16:14;;;;;;;8.82;4.57;;;;;;;24.87;51.41;101795.44;5072096;28;20020;-64
2023/09/07 09:18:56;;;;;;;6.60;5.00;;;;;;;24.90;52.04;101791.94;5072561;28;20055;-64
2023/09/07 09:21:23;;;;;;;6.10;4.90;;;;;;;24.93;50.48;101792.13;5068697;28;20373;-64
2023/09/07 09:23:50;;;;;;;7.10;4.40;;;;;;;24.99;50.83;101792.78;5067368;28;20147;-63
2023/09/07 09:26:16;;;;;;;7.55;4.70;;;;;;;25.04;50.56;101787.00;5072023;28;20028;-64
2023/09/07 09:28:44;;;;;;;7.30;4.70;;;;;;;25.12;51.12;101779.69;5072393;28;20029;-64
2023/09/07 09:31:12;;;;;;;7.55;4.82;;;;;;;25.18;50.54;101786.88;5071629;28;20426;-64
2023/09/07 09:33:41;;;;;;;6.88;4.55;;;;;;;25.26;50.17;101793.75;5072395;28;20129;-64
2023/09/07 09:36:07;;;;;;;7.15;4.63;;;;;;;25.26;50.24;101779.56;5072246;28;20024;-63
2023/09/07 09:38:33;;;;;;;5.65;4.07;;;;;;;25.43;50.30;101785.28;5071492;28;20379;-65
2023/09/07 09:40:59;;;;;;;8.90;4.00;;;;;;;25.53;50.04;101770.75;5068709;28;20021;-63
2023/09/07 09:43:25;;;;;;;7.43;4.15;;;;;;;25.58;50.26;101776.25;5064188;28;20097;-65
2023/09/07 09:45:52;;;;;;;5.25;4.75;;;;;;;25.69;50.36;101780.44;5051969;28;20365;-66
2023/09/07 09:48:19;;;;;;;7.85;4.47;;;;;;;25.68;49.96;101772.25;5056908;28;20390;-65
2023/09/07 09:50:48;;;;;;;7.65;4.18;;;;;;;25.73;49.45;101776.94;5068105;28;20355;-65
2023/09/07 09:53:18;;;;;;;6.30;4.47;;;;;;;25.80;49.18;101777.31;5070886;28;20066;-63
2023/09/07 09:55:47;;;;;;;7.88;4.00;;;;;;;25.85;49.61;101771.47;5071532;28;20070;-65
2023/09/07 09:58:13;;;;;;;5.22;3.72;;;;;;;25.95;49.84;101771.97;5070862;28;20021;-65
2023/09/07 10:00:42;;;;;;;7.25;4.53;;;;;;;25.97;49.46;101771.63;5071572;28;20024;-65
2023/09/07 10:03:12;;;;;;;8.15;4.28;;;;;;;26.00;49.78;101768.09;5071501;28;20029;-65
2023/09/07 10:05:38;;;;;;;9.30;4.38;;;;;;;26.08;50.10;101767.25;5070924;28;20039;-63
2023/09/07 10:08:09;;;;;;;6.35;5.03;;;;;;;26.14;49.60;101765.94;5068630;28;20023;-63
2023/09/07 10:10:36;;;;;;;5.38;4.38;;;;;;;26.20;49.58;101770.25;5070871;28;20069;-64
2023/09/07 10:13:03;;;;;;;6.50;4.40;;;;;;;26.47;50.67;101773.91;5070893;28;20029;-64
2023/09/07 10:15:29;;;;;;;6.78;4.50;;;;;;;26.42;49.01;101765.53;5071225;28;20047;-64
2023/09/07 10:18:16;;;;;;;5.95;4.10;;;;;;;26.52;50.34;101762.34;5071626;28;20384;-64
2023/09/07 10:20:49;;;;;;;8.10;4.35;;;;;;;26.49;48.42;101765.88;5070881;28;20036;-65
2023/09/07 10:23:14;;;;;;;7.30;3.78;;;;;;;26.51;48.30;101759.84;5065274;28;20021;-64
2023/09/07 10:25:40;;;;;;;6.15;4.25;;;;;;;26.46;47.98;101760.88;5069100;28;20078;-64
2023/09/07 10:28:05;;;;;;;10.05;4.30;;;;;;;26.45;47.84;101770.59;5071638;28;20177;-65
2023/09/07 10:30:32;;;;;;;4.97;4.10;;;;;;;26.45;48.43;101762.03;5071289;28;20368;-64
2023/09/07 10:32:58;;;;;;;6.43;4.13;;;;;;;26.53;48.74;101761.19;5070739;28;20035;-64
2023/09/07 10:35:25;;;;;;;4.72;4.00;;;;;;;26.52;47.67;101759.47;5071207;28;20016;-64
2023/09/07 10:37:51;;;;;;;5.10;3.53;;;;;;;26.60;48.27;101747.22;5070471;28;20390;-64
2023/09/07 10:40:21;;;;;;;4.93;4.30;;;;;;;26.57;47.33;101753.63;5069016;28;20035;-64
2023/09/07 10:42:46;;;;;;;5.90;3.80;;;;;;;26.67;47.50;101750.38;5065007;28;20148;-64
2023/09/07 10:45:15;;;;;;;7.82;3.97;;;;;;;26.63;47.27;101749.41;5071419;28;20413;-64
2023/09/07 10:47:45;;;;;;;5.85;4.03;;;;;;;26.80;46.36;101742.81;5070544;28;20071;-64
2023/09/07 10:50:12;;;;;;;4.15;3.75;;;;;;;26.81;46.47;101735.94;5064698;28;20058;-64
2023/09/07 10:52:39;;;;;;;8.88;4.00;;;;;;;26.91;47.08;101735.53;5071551;28;20037;-65
2023/09/07 10:55:06;;;;;;;7.88;4.25;;;;;;;26.89;47.10;101728.53;5070747;28;20024;-65
2023/09/07 10:57:31;;;;;;;8.40;4.25;;;;;;;26.83;46.08;101724.19;5071368;28;20028;-65
2023/09/07 10:59:57;;;;;;;5.72;3.90;;;;;;;26.83;46.11;101719.31;5071334;28;20078;-64
2023/09/07 11:02:22;;;;;;;5.57;3.72;;;;;;;26.89;46.75;101719.97;5070588;28;20062;-64
2023/09/07 11:04:47;;;;;;;6.47;4.10;;;;;;;26.86;46.20;101717.81;5071220;28;20025;-64
2023/09/07 11:07:13;;;;;;;5.72;3.63;;;;;;;26.94;46.30;101719.78;5068280;28;20059;-64
2023/09/07 11:09:42;;;;;;;7.30;4.10;;;;;;;27.01;46.31;101716.41;5069662;28;20063;-64